Union, Mississippi
Current Conditions -  °F | °C
As of 9:58 AM on Thursday 29 Jan 2015 (Local Time) from KMEI Reporting Station
Few Clouds Few Clouds  
Wind Chill: 58°   Ceiling: Unl
Heat Index: 58°   Visibility: 10mi
Dew Point: 45°   Wind: 18mph
Humidity: 62%   Direction: 190°S
Pressure: 30.25"   Gusts: NA
Location:  32.57°N, 89.12°W
Report Text: KMEI 291558Z 19016KT 10SM FEW029 14/07 A3025 RMK AO2 SLP241 T01440072
Loading
Personal Weather Stations






























Interactive Weather Map New forecast layout! Learn more

10-Day Weather Forecast

Advertisements
Track Severe Weather on mobile